Latest Weather Observations for Point Wilson

IDV60901

Issued at 1:01 am EST Tuesday 4 August 2015 (issued every 10 minutes, with the page automatically refreshed every 10 minutes)

About weather observations | Map of Melbourne area stations | Latest observations for Melbourne area | Other Formats
Station Details ID: 087166 Name: POINT WILSON Lat: -38.10 Lon: 144.54 Height: 18.0 m
Data from the previous 72 hours. | See also: Recent months for locations in Victoria
Date/Time
EST
Tmp

°C
App
Tmp
°C
Dew
Point
°C
Rel
Hum
%
Delta-T

°C
Wind Press
QNH
hPa
Press
MSL
hPa
Rain
since
9 am
mm
Dir
 
Spd
km/h
Gust
km/h
Spd
kts
Gust
kts
04/01:00am - - - - - WNW 22 28 12 15 - - -
04/12:30am - - - - - WNW 24 30 13 16 - - -
04/12:00am - - - - - WNW 22 26 12 14 - - -
 
Date/Time
EST
Tmp

°C
App
Tmp
°C
Dew
Point
°C
Rel
Hum
%
Delta-T

°C
Wind Press
QNH
hPa
Press
MSL
hPa
Rain
since
9 am
mm
Dir
 
Spd
km/h
Gust
km/h
Spd
kts
Gust
kts
03/11:30pm - - - - - WNW 20 22 11 12 - - -
03/11:00pm - - - - - WNW 22 28 12 15 - - -
03/10:30pm - - - - - NW 20 22 11 12 - - -
03/10:00pm - - - - - W 24 30 13 16 - - -
03/09:30pm - - - - - W 30 35 16 19 - - -
03/09:00pm - - - - - W 24 28 13 15 - - -
03/08:30pm - - - - - W 24 28 13 15 - - -
03/08:00pm - - - - - W 28 33 15 18 - - -
03/07:30pm - - - - - W 22 28 12 15 - - -
03/07:00pm - - - - - W 26 30 14 16 - - -
03/06:30pm - - - - - W 24 32 13 17 - - -
03/06:00pm - - - - - WSW 24 30 13 16 - - -
03/05:30pm - - - - - WSW 26 32 14 17 - - -
03/05:00pm - - - - - WSW 22 26 12 14 - - -
03/04:30pm - - - - - WSW 22 33 12 18 - - -
03/04:00pm - - - - - W 26 33 14 18 - - -
03/03:42pm - - - - - SW 28 43 15 23 - - -
03/03:30pm - - - - - SSW 20 24 11 13 - - -
03/03:00pm - - - - - SSW 32 43 17 23 - - -
03/02:46pm - - - - - SSW 37 41 20 22 - - -
03/02:30pm - - - - - WSW 32 39 17 21 - - -
03/02:00pm - - - - - WSW 28 44 15 24 - - -
03/01:30pm - - - - - SW 35 50 19 27 - - -
03/01:00pm - - - - - WSW 24 32 13 17 - - -
03/12:30pm - - - - - SW 32 39 17 21 - - -
03/12:06pm - - - - - SW 30 56 16 30 - - -
03/12:00pm - - - - - WSW 33 39 18 21 - - -
03/11:30am - - - - - WSW 26 30 14 16 - - -
03/11:00am - - - - - WSW 41 50 22 27 - - -
03/10:30am - - - - - WSW 35 44 19 24 - - -
03/10:00am - - - - - WSW 35 41 19 22 - - -
03/09:30am - - - - - WSW 33 46 18 25 - - -
03/09:00am - - - - - W 35 41 19 22 - - -
03/08:30am - - - - - W 33 39 18 21 - - -
03/08:00am - - - - - W 39 48 21 26 - - -
03/07:30am - - - - - W 33 39 18 21 - - -
03/07:00am - - - - - W 37 44 20 24 - - -
03/06:30am - - - - - W 39 46 21 25 - - -
03/06:00am - - - - - W 41 50 22 27 - - -
03/05:30am - - - - - WSW 41 52 22 28 - - -
03/05:00am - - - - - W 39 54 21 29 - - -
03/04:30am - - - - - W 33 41 18 22 - - -
03/04:00am - - - - - W 41 56 22 30 - - -
03/03:30am - - - - - W 46 61 25 33 - - -
03/03:12am - - - - - W 50 69 27 37 - - -
03/03:00am - - - - - W 48 57 26 31 - - -
03/02:56am - - - - - W 48 67 26 36 - - -
03/02:30am - - - - - WNW 46 59 25 32 - - -
03/02:00am - - - - - WNW 46 65 25 35 - - -
03/01:52am - - - - - WNW 44 65 24 35 - - -
03/01:30am - - - - - WNW 46 57 25 31 - - -
03/01:07am - - - - - WNW 46 65 25 35 - - -
03/01:00am - - - - - WNW 44 56 24 30 - - -
03/12:30am - - - - - NW 43 52 23 28 - - -
03/12:26am - - - - - NW 44 63 24 34 - - -
03/12:00am - - - - - NW 43 56 23 30 - - -
 
Date/Time
EST
Tmp

°C
App
Tmp
°C
Dew
Point
°C
Rel
Hum
%
Delta-T

°C
Wind Press
QNH
hPa
Press
MSL
hPa
Rain
since
9 am
mm
Dir
 
Spd
km/h
Gust
km/h
Spd
kts
Gust
kts
02/11:30pm - - - - - WNW 43 50 23 27 - - -
02/11:00pm - - - - - NW 44 56 24 30 - - -
02/10:30pm - - - - - WNW 39 52 21 28 - - -
02/10:00pm - - - - - WNW 39 48 21 26 - - -
02/09:30pm - - - - - WNW 37 48 20 26 - - -
02/09:00pm - - - - - WNW 46 56 25 30 - - -
02/08:49pm - - - - - WNW 43 63 23 34 - - -
02/08:30pm - - - - - WNW 33 39 18 21 - - -
02/08:00pm - - - - - WNW 30 37 16 20 - - -
02/07:30pm - - - - - WNW 39 46 21 25 - - -
02/07:09pm - - - - - WNW 39 57 21 31 - - -
02/07:00pm - - - - - WNW 33 41 18 22 - - -
02/06:30pm - - - - - WNW 35 43 19 23 - - -
02/06:00pm - - - - - W 33 39 18 21 - - -
02/05:30pm - - - - - W 37 46 20 25 - - -
02/05:06pm - - - - - W 44 65 24 35 - - -
02/05:00pm - - - - - W 41 50 22 27 - - -
02/04:30pm - - - - - W 37 48 20 26 - - -
02/04:00pm - - - - - WSW 28 39 15 21 - - -
02/03:59pm - - - - - WSW 26 39 14 21 - - -
02/03:34pm - - - - - W 46 65 25 35 - - -
02/03:30pm - - - - - WNW 50 65 27 35 - - -
02/03:06pm - - - - - WNW 48 67 26 36 - - -
02/03:00pm - - - - - WNW 50 67 27 36 - - -
02/02:36pm - - - - - WNW 43 69 23 37 - - -
02/02:30pm - - - - - WNW 39 52 21 28 - - -
02/02:00pm - - - - - WNW 37 48 20 26 - - -
02/01:30pm - - - - - WNW 44 57 24 31 - - -
02/01:21pm - - - - - WNW 41 59 22 32 - - -
02/01:00pm - - - - - WNW 48 59 26 32 - - -
02/12:45pm - - - - - WNW 48 67 26 36 - - -
02/12:30pm - - - - - NW 50 65 27 35 - - -
02/12:24pm - - - - - NW 46 65 25 35 - - -
02/12:00pm - - - - - WNW 43 59 23 32 - - -
02/11:38am - - - - - WNW 44 67 24 36 - - -
02/11:30am - - - - - NW 44 52 24 28 - - -
02/11:00am - - - - - NW 41 50 22 27 - - -
02/10:30am - - - - - WNW 39 50 21 27 - - -
02/10:00am - - - - - NW 44 54 24 29 - - -
02/09:30am - - - - - NW 43 50 23 27 - - -
02/09:00am - - - - - NW 35 44 19 24 - - -
02/08:30am - - - - - N 24 28 13 15 - - -
02/08:00am - - - - - N 26 30 14 16 - - -
02/07:30am - - - - - NNW 19 26 10 14 - - -
02/07:00am - - - - - N 13 17 7 9 - - -
02/06:30am - - - - - N 11 13 6 7 - - -
02/06:00am - - - - - N 17 19 9 10 - - -
02/05:30am - - - - - N 20 24 11 13 - - -
02/05:00am - - - - - N 22 24 12 13 - - -
02/04:30am - - - - - N 20 24 11 13 - - -
02/04:00am - - - - - NNW 17 20 9 11 - - -
02/03:30am - - - - - NNW 17 20 9 11 - - -
02/03:00am - - - - - NNW 19 22 10 12 - - -
02/02:30am - - - - - NNW 15 17 8 9 - - -
02/02:00am - - - - - NNW 15 17 8 9 - - -
02/01:30am - - - - - NNW 17 19 9 10 - - -
02/01:00am - - - - - WNW 13 17 7 9 - - -
02/12:30am - - - - - NNW 15 17 8 9 - - -
02/12:00am - - - - - NNW 15 19 8 10 - - -
 
Date/Time
EST
Tmp

°C
App
Tmp
°C
Dew
Point
°C
Rel
Hum
%
Delta-T

°C
Wind Press
QNH
hPa
Press
MSL
hPa
Rain
since
9 am
mm
Dir
 
Spd
km/h
Gust
km/h
Spd
kts
Gust
kts
01/11:30pm - - - - - NNW 15 17 8 9 - - -
01/11:00pm - - - - - NNW 15 17 8 9 - - -
01/10:30pm - - - - - NW 13 15 7 8 - - -
01/10:00pm - - - - - NNW 15 17 8 9 - - -
01/09:30pm - - - - - NW 15 17 8 9 - - -
01/09:00pm - - - - - NW 15 19 8 10 - - -
01/08:30pm - - - - - NW 15 15 8 8 - - -
01/08:00pm - - - - - NW 11 13 6 7 - - -
01/07:30pm - - - - - WNW 11 13 6 7 - - -
01/07:00pm - - - - - NW 11 13 6 7 - - -
01/06:30pm - - - - - NW 13 15 7 8 - - -
01/06:00pm - - - - - NW 13 15 7 8 - - -
01/05:30pm - - - - - WNW 17 20 9 11 - - -
01/05:00pm - - - - - WNW 15 17 8 9 - - -
01/04:30pm - - - - - W 11 13 6 7 - - -
01/04:00pm - - - - - W 9 11 5 6 - - -
01/03:30pm - - - - - W 9 9 5 5 - - -
01/03:00pm - - - - - W 11 13 6 7 - - -
01/02:30pm - - - - - WSW 13 17 7 9 - - -
01/02:00pm - - - - - WSW 19 22 10 12 - - -
01/01:30pm - - - - - WSW 22 24 12 13 - - -
01/01:00pm - - - - - W 22 28 12 15 - - -
01/12:30pm - - - - - W 19 22 10 12 - - -
01/12:00pm - - - - - W 13 17 7 9 - - -
01/11:30am - - - - - W 17 20 9 11 - - -
01/11:00am - - - - - W 20 22 11 12 - - -
01/10:30am - - - - - W 22 24 12 13 - - -
01/10:00am - - - - - W 24 30 13 16 - - -
01/09:30am - - - - - W 24 30 13 16 - - -
01/09:00am - - - - - WSW 28 35 15 19 - - -
01/08:30am - - - - - WSW 35 43 19 23 - - -
01/08:00am - - - - - WSW 28 35 15 19 - - -
01/07:54am - - - - - WSW 28 44 15 24 - - -
01/07:30am - - - - - W 41 54 22 29 - - -
01/07:24am - - - - - W 37 48 20 26 - - -
01/07:00am - - - - - NW 33 41 18 22 - - -
01/06:30am - - - - - NNW 41 48 22 26 - - -
01/06:03am - - - - - NNW 33 54 18 29 - - -
01/06:00am - - - - - NNW 33 41 18 22 - - -
01/05:30am - - - - - N 39 44 21 24 - - -
01/05:00am - - - - - N 44 52 24 28 - - -
01/04:30am - - - - - N 39 44 21 24 - - -
01/04:00am - - - - - N 32 46 17 25 - - -
01/03:30am - - - - - NNE 32 43 17 23 - - -
01/03:00am - - - - - N 35 43 19 23 - - -
01/02:30am - - - - - N 33 43 18 23 - - -
01/02:00am - - - - - N 28 32 15 17 - - -
01/01:30am - - - - - N 35 41 19 22 - - -

Latest Capital City Observations: Canberra | Sydney | Melbourne | Brisbane | Adelaide | Perth | Hobart | Darwin

Other Formats:

Comma delimited format used in spreadsheet applications
http://www.bom.gov.au/fwo/IDV60901/IDV60901.94847.axf

JavaScript Object Notation format (JSON) in row-major order
http://www.bom.gov.au/fwo/IDV60901/IDV60901.94847.json